sensor_id;sensor_type;location;lat;lon;timestamp;P1;durP1;ratioP1;P2;durP2;ratioP2
62633;SDS011;48704;50.534;6.442;2023-07-31T00:00:05;7.35;;;2.72;;
62633;SDS011;48704;50.534;6.442;2023-07-31T00:02:31;6.25;;;2.53;;
62633;SDS011;48704;50.534;6.442;2023-07-31T00:04:56;8.10;;;2.90;;
62633;SDS011;48704;50.534;6.442;2023-07-31T00:07:21;7.18;;;2.53;;
62633;SDS011;48704;50.534;6.442;2023-07-31T00:09:47;4.93;;;2.10;;
62633;SDS011;48704;50.534;6.442;2023-07-31T00:12:12;5.50;;;2.65;;
62633;SDS011;48704;50.534;6.442;2023-07-31T00:14:37;5.20;;;2.25;;
62633;SDS011;48704;50.534;6.442;2023-07-31T00:17:03;5.22;;;2.60;;
62633;SDS011;48704;50.534;6.442;2023-07-31T00:19:28;7.57;;;3.05;;
62633;SDS011;48704;50.534;6.442;2023-07-31T00:21:54;8.18;;;2.58;;
62633;SDS011;48704;50.534;6.442;2023-07-31T00:24:19;8.73;;;2.85;;
62633;SDS011;48704;50.534;6.442;2023-07-31T00:26:44;7.47;;;2.80;;
62633;SDS011;48704;50.534;6.442;2023-07-31T00:29:10;6.95;;;3.05;;
62633;SDS011;48704;50.534;6.442;2023-07-31T00:31:35;8.75;;;4.13;;
62633;SDS011;48704;50.534;6.442;2023-07-31T00:34:00;10.50;;;3.20;;
62633;SDS011;48704;50.534;6.442;2023-07-31T00:36:26;8.13;;;3.10;;
62633;SDS011;48704;50.534;6.442;2023-07-31T00:38:51;8.73;;;3.22;;
62633;SDS011;48704;50.534;6.442;2023-07-31T00:41:17;9.07;;;3.35;;
62633;SDS011;48704;50.534;6.442;2023-07-31T00:43:42;7.95;;;3.30;;
62633;SDS011;48704;50.534;6.442;2023-07-31T00:46:07;7.57;;;3.33;;
62633;SDS011;48704;50.534;6.442;2023-07-31T00:48:33;9.50;;;3.92;;
62633;SDS011;48704;50.534;6.442;2023-07-31T00:51:00;9.43;;;3.90;;
62633;SDS011;48704;50.534;6.442;2023-07-31T00:53:26;10.63;;;3.80;;
62633;SDS011;48704;50.534;6.442;2023-07-31T00:55:52;10.82;;;3.33;;
62633;SDS011;48704;50.534;6.442;2023-07-31T00:58:18;10.63;;;3.55;;
62633;SDS011;48704;50.534;6.442;2023-07-31T01:00:43;10.15;;;3.58;;
62633;SDS011;48704;50.534;6.442;2023-07-31T01:03:09;12.68;;;4.10;;
62633;SDS011;48704;50.534;6.442;2023-07-31T01:08:28;6.32;;;3.05;;
62633;SDS011;48704;50.534;6.442;2023-07-31T01:10:56;10.65;;;3.45;;
62633;SDS011;48704;50.534;6.442;2023-07-31T01:13:27;8.75;;;3.15;;
62633;SDS011;48704;50.534;6.442;2023-07-31T01:15:53;10.05;;;3.63;;
62633;SDS011;48704;50.534;6.442;2023-07-31T01:18:18;12.15;;;3.72;;
62633;SDS011;48704;50.534;6.442;2023-07-31T01:20:44;7.82;;;2.95;;
62633;SDS011;48704;50.534;6.442;2023-07-31T01:31:14;7.90;;;3.28;;
62633;SDS011;48704;50.534;6.442;2023-07-31T01:33:43;10.82;;;3.22;;
62633;SDS011;48704;50.534;6.442;2023-07-31T01:36:09;8.10;;;3.20;;
62633;SDS011;48704;50.534;6.442;2023-07-31T01:38:35;8.30;;;3.65;;
62633;SDS011;48704;50.534;6.442;2023-07-31T01:41:00;6.18;;;3.00;;
62633;SDS011;48704;50.534;6.442;2023-07-31T01:43:25;6.70;;;3.00;;
62633;SDS011;48704;50.534;6.442;2023-07-31T01:45:51;8.45;;;3.17;;
62633;SDS011;48704;50.534;6.442;2023-07-31T01:48:16;12.30;;;3.30;;
62633;SDS011;48704;50.534;6.442;2023-07-31T01:50:41;8.90;;;3.20;;
62633;SDS011;48704;50.534;6.442;2023-07-31T01:53:07;11.20;;;3.67;;
62633;SDS011;48704;50.534;6.442;2023-07-31T01:55:32;7.22;;;3.42;;
62633;SDS011;48704;50.534;6.442;2023-07-31T01:57:57;12.02;;;3.05;;
62633;SDS011;48704;50.534;6.442;2023-07-31T02:00:22;9.63;;;3.28;;
62633;SDS011;48704;50.534;6.442;2023-07-31T02:02:48;10.23;;;3.88;;
62633;SDS011;48704;50.534;6.442;2023-07-31T02:05:13;9.85;;;3.15;;
62633;SDS011;48704;50.534;6.442;2023-07-31T02:07:38;9.18;;;2.88;;
62633;SDS011;48704;50.534;6.442;2023-07-31T02:10:04;11.00;;;3.63;;
62633;SDS011;48704;50.534;6.442;2023-07-31T02:12:29;9.55;;;3.10;;
62633;SDS011;48704;50.534;6.442;2023-07-31T02:14:58;8.13;;;2.75;;
62633;SDS011;48704;50.534;6.442;2023-07-31T02:17:24;7.60;;;3.15;;
62633;SDS011;48704;50.534;6.442;2023-07-31T02:19:49;10.20;;;3.17;;
62633;SDS011;48704;50.534;6.442;2023-07-31T02:22:14;11.18;;;3.25;;
62633;SDS011;48704;50.534;6.442;2023-07-31T02:24:40;11.05;;;3.55;;
62633;SDS011;48704;50.534;6.442;2023-07-31T02:27:05;9.38;;;3.00;;
62633;SDS011;48704;50.534;6.442;2023-07-31T02:29:31;10.93;;;3.40;;
62633;SDS011;48704;50.534;6.442;2023-07-31T02:31:56;7.95;;;2.78;;
62633;SDS011;48704;50.534;6.442;2023-07-31T02:34:21;6.13;;;3.33;;
62633;SDS011;48704;50.534;6.442;2023-07-31T02:36:46;8.93;;;3.30;;
62633;SDS011;48704;50.534;6.442;2023-07-31T02:39:12;10.40;;;3.95;;
62633;SDS011;48704;50.534;6.442;2023-07-31T02:41:37;10.43;;;3.20;;
62633;SDS011;48704;50.534;6.442;2023-07-31T02:44:02;11.70;;;3.60;;
62633;SDS011;48704;50.534;6.442;2023-07-31T02:46:27;11.52;;;3.17;;
62633;SDS011;48704;50.534;6.442;2023-07-31T02:48:53;7.47;;;2.83;;
62633;SDS011;48704;50.534;6.442;2023-07-31T02:51:18;7.03;;;3.10;;
62633;SDS011;48704;50.534;6.442;2023-07-31T02:53:43;6.15;;;3.70;;
62633;SDS011;48704;50.534;6.442;2023-07-31T02:56:09;10.07;;;3.67;;
62633;SDS011;48704;50.534;6.442;2023-07-31T02:58:34;10.38;;;4.00;;
62633;SDS011;48704;50.534;6.442;2023-07-31T03:00:59;9.02;;;3.50;;
62633;SDS011;48704;50.534;6.442;2023-07-31T03:03:25;7.72;;;4.35;;
62633;SDS011;48704;50.534;6.442;2023-07-31T03:05:50;8.63;;;3.67;;
62633;SDS011;48704;50.534;6.442;2023-07-31T03:08:15;13.63;;;4.20;;
62633;SDS011;48704;50.534;6.442;2023-07-31T03:10:40;11.63;;;4.63;;
62633;SDS011;48704;50.534;6.442;2023-07-31T03:13:06;10.93;;;4.13;;
62633;SDS011;48704;50.534;6.442;2023-07-31T03:15:31;6.95;;;4.18;;
62633;SDS011;48704;50.534;6.442;2023-07-31T03:17:57;7.35;;;3.75;;
62633;SDS011;48704;50.534;6.442;2023-07-31T03:20:22;11.13;;;4.28;;
62633;SDS011;48704;50.534;6.442;2023-07-31T03:22:47;9.52;;;3.58;;
62633;SDS011;48704;50.534;6.442;2023-07-31T03:25:13;6.43;;;3.60;;
62633;SDS011;48704;50.534;6.442;2023-07-31T03:27:39;8.50;;;4.28;;
62633;SDS011;48704;50.534;6.442;2023-07-31T03:30:04;10.00;;;4.38;;
62633;SDS011;48704;50.534;6.442;2023-07-31T03:32:30;11.75;;;4.25;;
62633;SDS011;48704;50.534;6.442;2023-07-31T03:34:56;8.55;;;3.45;;
62633;SDS011;48704;50.534;6.442;2023-07-31T03:37:21;7.43;;;3.45;;
62633;SDS011;48704;50.534;6.442;2023-07-31T03:39:46;8.38;;;4.00;;
62633;SDS011;48704;50.534;6.442;2023-07-31T03:42:11;7.28;;;3.53;;
62633;SDS011;48704;50.534;6.442;2023-07-31T03:44:37;11.98;;;4.35;;
62633;SDS011;48704;50.534;6.442;2023-07-31T03:47:02;9.45;;;3.45;;
62633;SDS011;48704;50.534;6.442;2023-07-31T03:49:27;9.82;;;4.22;;
62633;SDS011;48704;50.534;6.442;2023-07-31T03:51:53;6.93;;;3.40;;
62633;SDS011;48704;50.534;6.442;2023-07-31T03:54:18;8.48;;;3.40;;
62633;SDS011;48704;50.534;6.442;2023-07-31T03:56:44;9.40;;;3.28;;
62633;SDS011;48704;50.534;6.442;2023-07-31T03:59:09;11.15;;;3.95;;
62633;SDS011;48704;50.534;6.442;2023-07-31T04:01:34;9.02;;;3.70;;
62633;SDS011;48704;50.534;6.442;2023-07-31T04:03:59;9.35;;;4.53;;
62633;SDS011;48704;50.534;6.442;2023-07-31T04:06:25;7.32;;;3.75;;
62633;SDS011;48704;50.534;6.442;2023-07-31T04:08:50;8.50;;;3.45;;
62633;SDS011;48704;50.534;6.442;2023-07-31T04:11:15;5.70;;;3.33;;
62633;SDS011;48704;50.534;6.442;2023-07-31T04:13:41;7.53;;;3.75;;
62633;SDS011;48704;50.534;6.442;2023-07-31T04:16:06;7.05;;;3.53;;
62633;SDS011;48704;50.534;6.442;2023-07-31T04:18:31;10.23;;;3.53;;
62633;SDS011;48704;50.534;6.442;2023-07-31T04:20:57;10.23;;;3.45;;
62633;SDS011;48704;50.534;6.442;2023-07-31T04:23:29;9.13;;;4.18;;
62633;SDS011;48704;50.534;6.442;2023-07-31T04:25:54;11.10;;;3.75;;
62633;SDS011;48704;50.534;6.442;2023-07-31T04:28:20;7.78;;;3.20;;
62633;SDS011;48704;50.534;6.442;2023-07-31T04:30:45;6.72;;;3.00;;
62633;SDS011;48704;50.534;6.442;2023-07-31T04:33:10;6.43;;;3.15;;
62633;SDS011;48704;50.534;6.442;2023-07-31T04:35:36;8.50;;;3.83;;
62633;SDS011;48704;50.534;6.442;2023-07-31T04:38:01;8.35;;;3.28;;
62633;SDS011;48704;50.534;6.442;2023-07-31T04:40:26;8.85;;;3.40;;
62633;SDS011;48704;50.534;6.442;2023-07-31T04:42:52;9.60;;;3.33;;
62633;SDS011;48704;50.534;6.442;2023-07-31T04:45:17;8.55;;;3.95;;
62633;SDS011;48704;50.534;6.442;2023-07-31T04:47:42;8.85;;;3.47;;
62633;SDS011;48704;50.534;6.442;2023-07-31T04:50:08;6.70;;;3.05;;
62633;SDS011;48704;50.534;6.442;2023-07-31T04:52:33;9.13;;;3.10;;
62633;SDS011;48704;50.534;6.442;2023-07-31T04:54:58;8.88;;;3.97;;
62633;SDS011;48704;50.534;6.442;2023-07-31T04:57:24;9.13;;;3.72;;
62633;SDS011;48704;50.534;6.442;2023-07-31T04:59:49;7.55;;;3.20;;
62633;SDS011;48704;50.534;6.442;2023-07-31T05:02:14;8.77;;;2.80;;
62633;SDS011;48704;50.534;6.442;2023-07-31T05:04:40;9.40;;;3.00;;
62633;SDS011;48704;50.534;6.442;2023-07-31T05:07:05;6.57;;;2.70;;
62633;SDS011;48704;50.534;6.442;2023-07-31T05:09:30;8.00;;;3.60;;
62633;SDS011;48704;50.534;6.442;2023-07-31T05:11:56;9.57;;;3.50;;
62633;SDS011;48704;50.534;6.442;2023-07-31T05:14:21;8.38;;;3.40;;
62633;SDS011;48704;50.534;6.442;2023-07-31T05:16:46;9.07;;;3.97;;
62633;SDS011;48704;50.534;6.442;2023-07-31T05:19:11;7.68;;;3.40;;
62633;SDS011;48704;50.534;6.442;2023-07-31T05:21:37;10.13;;;3.88;;
62633;SDS011;48704;50.534;6.442;2023-07-31T05:24:02;8.10;;;3.65;;
62633;SDS011;48704;50.534;6.442;2023-07-31T05:26:27;7.68;;;3.25;;
62633;SDS011;48704;50.534;6.442;2023-07-31T05:28:53;8.75;;;3.55;;
62633;SDS011;48704;50.534;6.442;2023-07-31T05:31:18;8.77;;;3.67;;
62633;SDS011;48704;50.534;6.442;2023-07-31T05:33:43;6.95;;;3.30;;
62633;SDS011;48704;50.534;6.442;2023-07-31T05:36:09;9.40;;;3.83;;
62633;SDS011;48704;50.534;6.442;2023-07-31T05:38:35;8.70;;;3.72;;
62633;SDS011;48704;50.534;6.442;2023-07-31T05:41:00;11.07;;;3.47;;
62633;SDS011;48704;50.534;6.442;2023-07-31T05:43:26;9.73;;;3.50;;
62633;SDS011;48704;50.534;6.442;2023-07-31T05:45:51;4.40;;;3.00;;
62633;SDS011;48704;50.534;6.442;2023-07-31T05:48:17;9.65;;;3.65;;
62633;SDS011;48704;50.534;6.442;2023-07-31T05:50:43;8.55;;;3.25;;
62633;SDS011;48704;50.534;6.442;2023-07-31T05:53:08;8.63;;;3.50;;
62633;SDS011;48704;50.534;6.442;2023-07-31T05:55:35;7.70;;;3.35;;
62633;SDS011;48704;50.534;6.442;2023-07-31T05:58:00;10.38;;;3.63;;
62633;SDS011;48704;50.534;6.442;2023-07-31T06:00:26;8.18;;;3.30;;
62633;SDS011;48704;50.534;6.442;2023-07-31T06:02:51;7.57;;;3.40;;
62633;SDS011;48704;50.534;6.442;2023-07-31T06:05:16;8.45;;;3.65;;
62633;SDS011;48704;50.534;6.442;2023-07-31T06:07:42;9.48;;;3.45;;
62633;SDS011;48704;50.534;6.442;2023-07-31T06:10:08;6.57;;;3.28;;
62633;SDS011;48704;50.534;6.442;2023-07-31T06:12:34;9.52;;;3.47;;
62633;SDS011;48704;50.534;6.442;2023-07-31T06:15:00;9.90;;;3.53;;
62633;SDS011;48704;50.534;6.442;2023-07-31T06:17:25;7.70;;;3.40;;
62633;SDS011;48704;50.534;6.442;2023-07-31T06:19:51;7.60;;;3.10;;
62633;SDS011;48704;50.534;6.442;2023-07-31T06:22:17;8.60;;;4.20;;
62633;SDS011;48704;50.534;6.442;2023-07-31T06:24:43;7.63;;;3.00;;
62633;SDS011;48704;50.534;6.442;2023-07-31T06:27:08;9.40;;;3.92;;
62633;SDS011;48704;50.534;6.442;2023-07-31T06:29:34;10.75;;;3.25;;
62633;SDS011;48704;50.534;6.442;2023-07-31T06:31:59;9.32;;;3.42;;
62633;SDS011;48704;50.534;6.442;2023-07-31T06:34:25;10.40;;;3.28;;
62633;SDS011;48704;50.534;6.442;2023-07-31T06:36:50;6.43;;;3.10;;
62633;SDS011;48704;50.534;6.442;2023-07-31T06:39:15;9.45;;;3.35;;
62633;SDS011;48704;50.534;6.442;2023-07-31T06:41:41;12.35;;;3.97;;
62633;SDS011;48704;50.534;6.442;2023-07-31T06:44:07;10.18;;;3.20;;
62633;SDS011;48704;50.534;6.442;2023-07-31T06:46:33;8.95;;;3.35;;
62633;SDS011;48704;50.534;6.442;2023-07-31T06:48:58;9.18;;;3.30;;
62633;SDS011;48704;50.534;6.442;2023-07-31T06:51:23;7.57;;;3.00;;
62633;SDS011;48704;50.534;6.442;2023-07-31T06:53:49;8.32;;;3.47;;
62633;SDS011;48704;50.534;6.442;2023-07-31T06:56:14;7.07;;;3.22;;
62633;SDS011;48704;50.534;6.442;2023-07-31T06:58:39;9.20;;;3.08;;
62633;SDS011;48704;50.534;6.442;2023-07-31T07:01:04;8.98;;;3.55;;
62633;SDS011;48704;50.534;6.442;2023-07-31T07:03:30;10.32;;;3.72;;
62633;SDS011;48704;50.534;6.442;2023-07-31T07:05:55;7.15;;;3.15;;
62633;SDS011;48704;50.534;6.442;2023-07-31T07:08:20;8.25;;;2.97;;
62633;SDS011;48704;50.534;6.442;2023-07-31T07:10:46;8.27;;;3.33;;
62633;SDS011;48704;50.534;6.442;2023-07-31T07:13:11;6.95;;;2.70;;
62633;SDS011;48704;50.534;6.442;2023-07-31T07:15:38;7.28;;;2.80;;
62633;SDS011;48704;50.534;6.442;2023-07-31T07:18:03;6.35;;;2.67;;
62633;SDS011;48704;50.534;6.442;2023-07-31T07:20:29;7.80;;;2.65;;
62633;SDS011;48704;50.534;6.442;2023-07-31T07:22:54;7.35;;;2.67;;
62633;SDS011;48704;50.534;6.442;2023-07-31T07:25:19;6.13;;;3.10;;
62633;SDS011;48704;50.534;6.442;2023-07-31T07:27:45;9.30;;;2.80;;
62633;SDS011;48704;50.534;6.442;2023-07-31T07:30:10;5.63;;;2.50;;
62633;SDS011;48704;50.534;6.442;2023-07-31T07:32:35;7.00;;;2.60;;
62633;SDS011;48704;50.534;6.442;2023-07-31T07:35:01;6.28;;;2.58;;
62633;SDS011;48704;50.534;6.442;2023-07-31T07:37:26;7.45;;;2.50;;
62633;SDS011;48704;50.534;6.442;2023-07-31T07:39:51;9.32;;;2.92;;
62633;SDS011;48704;50.534;6.442;2023-07-31T07:42:16;9.43;;;2.63;;
62633;SDS011;48704;50.534;6.442;2023-07-31T07:44:43;5.78;;;3.10;;
62633;SDS011;48704;50.534;6.442;2023-07-31T07:47:08;5.32;;;2.55;;
62633;SDS011;48704;50.534;6.442;2023-07-31T07:49:34;6.13;;;2.42;;
62633;SDS011;48704;50.534;6.442;2023-07-31T07:52:00;6.30;;;2.85;;
62633;SDS011;48704;50.534;6.442;2023-07-31T07:54:26;6.65;;;3.13;;
62633;SDS011;48704;50.534;6.442;2023-07-31T07:56:51;6.82;;;2.25;;
62633;SDS011;48704;50.534;6.442;2023-07-31T07:59:16;5.13;;;2.70;;
62633;SDS011;48704;50.534;6.442;2023-07-31T08:01:42;5.53;;;2.70;;
62633;SDS011;48704;50.534;6.442;2023-07-31T08:04:07;6.78;;;2.28;;
62633;SDS011;48704;50.534;6.442;2023-07-31T08:06:32;5.65;;;2.08;;
62633;SDS011;48704;50.534;6.442;2023-07-31T08:08:58;7.72;;;2.53;;
62633;SDS011;48704;50.534;6.442;2023-07-31T08:11:24;5.07;;;1.90;;
62633;SDS011;48704;50.534;6.442;2023-07-31T08:13:49;6.72;;;2.22;;
62633;SDS011;48704;50.534;6.442;2023-07-31T08:16:15;5.25;;;2.50;;
62633;SDS011;48704;50.534;6.442;2023-07-31T08:18:40;4.50;;;1.98;;
62633;SDS011;48704;50.534;6.442;2023-07-31T08:21:07;5.85;;;2.53;;
62633;SDS011;48704;50.534;6.442;2023-07-31T08:23:32;7.03;;;2.72;;
62633;SDS011;48704;50.534;6.442;2023-07-31T08:25:57;4.60;;;2.42;;
62633;SDS011;48704;50.534;6.442;2023-07-31T08:28:23;5.82;;;2.13;;
62633;SDS011;48704;50.534;6.442;2023-07-31T08:30:48;8.60;;;2.17;;
62633;SDS011;48704;50.534;6.442;2023-07-31T08:33:15;6.32;;;2.25;;
62633;SDS011;48704;50.534;6.442;2023-07-31T08:35:40;6.13;;;2.38;;
62633;SDS011;48704;50.534;6.442;2023-07-31T08:38:06;5.45;;;2.25;;
62633;SDS011;48704;50.534;6.442;2023-07-31T08:40:31;4.30;;;2.33;;
62633;SDS011;48704;50.534;6.442;2023-07-31T08:42:56;4.60;;;2.10;;
62633;SDS011;48704;50.534;6.442;2023-07-31T08:45:26;4.07;;;2.17;;
62633;SDS011;48704;50.534;6.442;2023-07-31T08:47:52;6.75;;;2.10;;
62633;SDS011;48704;50.534;6.442;2023-07-31T08:50:19;6.05;;;2.22;;
62633;SDS011;48704;50.534;6.442;2023-07-31T08:52:45;5.72;;;2.25;;
62633;SDS011;48704;50.534;6.442;2023-07-31T08:55:12;5.70;;;2.30;;
62633;SDS011;48704;50.534;6.442;2023-07-31T08:57:38;8.38;;;2.08;;
62633;SDS011;48704;50.534;6.442;2023-07-31T09:00:04;4.95;;;2.17;;
62633;SDS011;48704;50.534;6.442;2023-07-31T09:02:37;6.40;;;2.17;;
62633;SDS011;48704;50.534;6.442;2023-07-31T09:05:16;6.45;;;2.50;;
62633;SDS011;48704;50.534;6.442;2023-07-31T09:07:42;6.22;;;2.25;;
62633;SDS011;48704;50.534;6.442;2023-07-31T09:10:11;6.03;;;2.05;;
62633;SDS011;48704;50.534;6.442;2023-07-31T09:12:36;7.05;;;2.50;;
62633;SDS011;48704;50.534;6.442;2023-07-31T09:15:03;7.60;;;2.58;;
62633;SDS011;48704;50.534;6.442;2023-07-31T09:17:30;7.00;;;2.33;;
62633;SDS011;48704;50.534;6.442;2023-07-31T09:20:12;5.68;;;1.65;;
62633;SDS011;48704;50.534;6.442;2023-07-31T09:22:38;5.20;;;2.00;;
62633;SDS011;48704;50.534;6.442;2023-07-31T09:25:14;5.75;;;1.92;;
62633;SDS011;48704;50.534;6.442;2023-07-31T09:27:50;9.30;;;2.53;;
62633;SDS011;48704;50.534;6.442;2023-07-31T09:30:17;7.28;;;3.05;;
62633;SDS011;48704;50.534;6.442;2023-07-31T09:32:43;6.00;;;2.45;;
62633;SDS011;48704;50.534;6.442;2023-07-31T09:37:49;5.25;;;2.47;;
62633;SDS011;48704;50.534;6.442;2023-07-31T09:43:01;7.43;;;2.47;;
62633;SDS011;48704;50.534;6.442;2023-07-31T09:45:29;6.35;;;2.05;;
62633;SDS011;48704;50.534;6.442;2023-07-31T09:47:55;7.80;;;2.33;;
62633;SDS011;48704;50.534;6.442;2023-07-31T09:50:22;7.30;;;2.38;;
62633;SDS011;48704;50.534;6.442;2023-07-31T09:52:48;4.22;;;2.25;;
62633;SDS011;48704;50.534;6.442;2023-07-31T09:55:14;4.30;;;1.92;;
62633;SDS011;48704;50.534;6.442;2023-07-31T09:57:40;7.22;;;2.53;;
62633;SDS011;48704;50.534;6.442;2023-07-31T10:00:08;5.28;;;2.17;;
62633;SDS011;48704;50.534;6.442;2023-07-31T10:02:37;4.65;;;1.67;;
62633;SDS011;48704;50.534;6.442;2023-07-31T10:05:03;4.45;;;2.38;;
62633;SDS011;48704;50.534;6.442;2023-07-31T10:07:30;9.20;;;2.55;;
62633;SDS011;48704;50.534;6.442;2023-07-31T10:09:59;3.33;;;1.90;;
62633;SDS011;48704;50.534;6.442;2023-07-31T10:12:28;3.88;;;1.83;;
62633;SDS011;48704;50.534;6.442;2023-07-31T10:14:54;5.95;;;2.30;;
62633;SDS011;48704;50.534;6.442;2023-07-31T10:17:21;6.30;;;2.30;;
62633;SDS011;48704;50.534;6.442;2023-07-31T10:19:47;8.45;;;2.50;;
62633;SDS011;48704;50.534;6.442;2023-07-31T10:22:14;6.93;;;3.28;;
62633;SDS011;48704;50.534;6.442;2023-07-31T10:24:39;7.03;;;2.22;;
62633;SDS011;48704;50.534;6.442;2023-07-31T10:27:07;4.40;;;2.00;;
62633;SDS011;48704;50.534;6.442;2023-07-31T10:29:35;4.93;;;2.00;;
62633;SDS011;48704;50.534;6.442;2023-07-31T10:32:02;5.25;;;2.25;;
62633;SDS011;48704;50.534;6.442;2023-07-31T10:34:32;5.95;;;2.28;;
62633;SDS011;48704;50.534;6.442;2023-07-31T10:42:49;4.68;;;1.80;;
62633;SDS011;48704;50.534;6.442;2023-07-31T10:45:36;4.55;;;1.92;;
62633;SDS011;48704;50.534;6.442;2023-07-31T10:48:16;4.93;;;1.60;;
62633;SDS011;48704;50.534;6.442;2023-07-31T10:53:24;3.20;;;1.70;;
62633;SDS011;48704;50.534;6.442;2023-07-31T10:55:58;7.80;;;1.83;;
62633;SDS011;48704;50.534;6.442;2023-07-31T10:58:25;4.30;;;1.80;;
62633;SDS011;48704;50.534;6.442;2023-07-31T11:00:51;3.70;;;1.60;;
62633;SDS011;48704;50.534;6.442;2023-07-31T11:03:24;1.85;;;1.10;;
62633;SDS011;48704;50.534;6.442;2023-07-31T11:06:03;2.88;;;1.60;;
62633;SDS011;48704;50.534;6.442;2023-07-31T11:08:30;4.13;;;1.00;;
62633;SDS011;48704;50.534;6.442;2023-07-31T11:15:53;2.92;;;1.30;;
62633;SDS011;48704;50.534;6.442;2023-07-31T11:18:19;4.50;;;1.70;;
62633;SDS011;48704;50.534;6.442;2023-07-31T11:20:44;4.93;;;1.90;;
62633;SDS011;48704;50.534;6.442;2023-07-31T11:23:10;4.78;;;2.30;;
62633;SDS011;48704;50.534;6.442;2023-07-31T11:25:36;4.10;;;1.80;;
62633;SDS011;48704;50.534;6.442;2023-07-31T11:28:07;4.80;;;2.42;;
62633;SDS011;48704;50.534;6.442;2023-07-31T11:30:34;6.05;;;2.78;;
62633;SDS011;48704;50.534;6.442;2023-07-31T11:33:03;5.72;;;2.78;;
62633;SDS011;48704;50.534;6.442;2023-07-31T11:35:33;5.93;;;2.45;;
62633;SDS011;48704;50.534;6.442;2023-07-31T11:38:00;7.00;;;2.85;;
62633;SDS011;48704;50.534;6.442;2023-07-31T11:40:26;6.78;;;3.17;;
62633;SDS011;48704;50.534;6.442;2023-07-31T11:42:57;5.47;;;2.72;;
62633;SDS011;48704;50.534;6.442;2023-07-31T11:45:26;7.25;;;2.88;;
62633;SDS011;48704;50.534;6.442;2023-07-31T11:47:56;6.00;;;2.92;;
62633;SDS011;48704;50.534;6.442;2023-07-31T11:50:22;5.93;;;2.80;;
62633;SDS011;48704;50.534;6.442;2023-07-31T11:52:50;5.45;;;2.65;;
62633;SDS011;48704;50.534;6.442;2023-07-31T11:55:19;6.93;;;2.75;;
62633;SDS011;48704;50.534;6.442;2023-07-31T11:57:46;5.65;;;3.10;;
62633;SDS011;48704;50.534;6.442;2023-07-31T12:00:12;6.07;;;2.83;;
62633;SDS011;48704;50.534;6.442;2023-07-31T12:02:39;5.03;;;2.70;;
62633;SDS011;48704;50.534;6.442;2023-07-31T12:05:06;5.30;;;3.00;;
62633;SDS011;48704;50.534;6.442;2023-07-31T12:07:45;6.35;;;2.40;;
62633;SDS011;48704;50.534;6.442;2023-07-31T12:10:22;5.65;;;3.00;;
62633;SDS011;48704;50.534;6.442;2023-07-31T12:12:55;4.57;;;2.67;;
62633;SDS011;48704;50.534;6.442;2023-07-31T12:15:34;4.68;;;2.50;;
62633;SDS011;48704;50.534;6.442;2023-07-31T12:18:05;6.03;;;2.95;;
62633;SDS011;48704;50.534;6.442;2023-07-31T12:20:32;5.95;;;2.90;;
62633;SDS011;48704;50.534;6.442;2023-07-31T12:22:57;6.43;;;2.85;;
62633;SDS011;48704;50.534;6.442;2023-07-31T12:25:28;7.55;;;3.20;;
62633;SDS011;48704;50.534;6.442;2023-07-31T12:27:57;7.43;;;3.03;;
62633;SDS011;48704;50.534;6.442;2023-07-31T12:30:26;5.50;;;3.15;;
62633;SDS011;48704;50.534;6.442;2023-07-31T12:32:56;6.35;;;2.90;;
62633;SDS011;48704;50.534;6.442;2023-07-31T12:35:21;5.30;;;2.63;;
62633;SDS011;48704;50.534;6.442;2023-07-31T12:37:46;5.13;;;2.63;;
62633;SDS011;48704;50.534;6.442;2023-07-31T12:40:12;5.75;;;2.78;;
62633;SDS011;48704;50.534;6.442;2023-07-31T12:42:37;5.78;;;2.47;;
62633;SDS011;48704;50.534;6.442;2023-07-31T12:45:03;5.13;;;2.63;;
62633;SDS011;48704;50.534;6.442;2023-07-31T12:47:29;4.53;;;2.30;;
62633;SDS011;48704;50.534;6.442;2023-07-31T12:49:55;4.40;;;2.85;;
62633;SDS011;48704;50.534;6.442;2023-07-31T12:52:20;4.15;;;2.28;;
62633;SDS011;48704;50.534;6.442;2023-07-31T12:54:45;4.25;;;2.85;;
62633;SDS011;48704;50.534;6.442;2023-07-31T12:57:11;6.78;;;2.50;;
62633;SDS011;48704;50.534;6.442;2023-07-31T12:59:36;4.95;;;2.40;;
62633;SDS011;48704;50.534;6.442;2023-07-31T13:02:02;4.43;;;2.40;;
62633;SDS011;48704;50.534;6.442;2023-07-31T13:04:27;4.35;;;2.13;;
62633;SDS011;48704;50.534;6.442;2023-07-31T13:06:52;4.20;;;2.63;;
62633;SDS011;48704;50.534;6.442;2023-07-31T13:09:17;5.07;;;2.38;;
62633;SDS011;48704;50.534;6.442;2023-07-31T13:11:43;5.47;;;2.63;;
62633;SDS011;48704;50.534;6.442;2023-07-31T13:14:08;5.57;;;2.55;;
62633;SDS011;48704;50.534;6.442;2023-07-31T13:16:33;5.25;;;2.38;;
62633;SDS011;48704;50.534;6.442;2023-07-31T13:18:59;4.90;;;2.53;;
62633;SDS011;48704;50.534;6.442;2023-07-31T13:21:24;6.30;;;2.50;;
62633;SDS011;48704;50.534;6.442;2023-07-31T13:23:49;5.05;;;2.08;;
62633;SDS011;48704;50.534;6.442;2023-07-31T13:26:15;4.40;;;2.60;;
62633;SDS011;48704;50.534;6.442;2023-07-31T13:28:40;4.57;;;2.13;;
62633;SDS011;48704;50.534;6.442;2023-07-31T13:31:05;4.63;;;1.67;;
62633;SDS011;48704;50.534;6.442;2023-07-31T13:33:31;4.22;;;2.10;;
62633;SDS011;48704;50.534;6.442;2023-07-31T13:35:56;4.97;;;2.13;;
62633;SDS011;48704;50.534;6.442;2023-07-31T13:38:21;3.55;;;1.95;;
62633;SDS011;48704;50.534;6.442;2023-07-31T13:40:46;3.53;;;1.52;;
62633;SDS011;48704;50.534;6.442;2023-07-31T13:43:12;2.72;;;1.50;;
62633;SDS011;48704;50.534;6.442;2023-07-31T13:45:37;3.60;;;1.70;;
62633;SDS011;48704;50.534;6.442;2023-07-31T13:48:02;4.95;;;1.77;;
62633;SDS011;48704;50.534;6.442;2023-07-31T13:50:28;3.53;;;1.90;;
62633;SDS011;48704;50.534;6.442;2023-07-31T13:52:54;3.85;;;1.60;;
62633;SDS011;48704;50.534;6.442;2023-07-31T13:55:19;3.90;;;2.10;;
62633;SDS011;48704;50.534;6.442;2023-07-31T13:57:45;3.72;;;2.05;;
62633;SDS011;48704;50.534;6.442;2023-07-31T14:00:12;3.72;;;1.58;;
62633;SDS011;48704;50.534;6.442;2023-07-31T14:02:38;4.25;;;1.92;;
62633;SDS011;48704;50.534;6.442;2023-07-31T14:05:04;6.45;;;2.10;;
62633;SDS011;48704;50.534;6.442;2023-07-31T14:07:31;3.50;;;1.95;;
62633;SDS011;48704;50.534;6.442;2023-07-31T14:09:57;3.38;;;2.00;;
62633;SDS011;48704;50.534;6.442;2023-07-31T14:12:22;5.40;;;2.03;;
62633;SDS011;48704;50.534;6.442;2023-07-31T14:14:47;4.07;;;2.28;;
62633;SDS011;48704;50.534;6.442;2023-07-31T14:17:12;2.95;;;1.63;;
62633;SDS011;48704;50.534;6.442;2023-07-31T14:19:38;5.38;;;2.10;;
62633;SDS011;48704;50.534;6.442;2023-07-31T14:22:04;6.40;;;2.63;;
62633;SDS011;48704;50.534;6.442;2023-07-31T14:24:29;5.85;;;2.40;;
62633;SDS011;48704;50.534;6.442;2023-07-31T14:26:55;3.90;;;1.80;;
62633;SDS011;48704;50.534;6.442;2023-07-31T14:29:20;4.05;;;1.95;;
62633;SDS011;48704;50.534;6.442;2023-07-31T14:31:45;3.92;;;2.10;;
62633;SDS011;48704;50.534;6.442;2023-07-31T14:34:11;3.95;;;1.90;;
62633;SDS011;48704;50.534;6.442;2023-07-31T14:36:36;4.35;;;2.20;;
62633;SDS011;48704;50.534;6.442;2023-07-31T14:39:01;4.68;;;2.20;;
62633;SDS011;48704;50.534;6.442;2023-07-31T14:41:27;3.65;;;1.73;;
62633;SDS011;48704;50.534;6.442;2023-07-31T14:43:52;5.00;;;2.00;;
62633;SDS011;48704;50.534;6.442;2023-07-31T14:46:17;4.15;;;2.20;;
62633;SDS011;48704;50.534;6.442;2023-07-31T14:48:42;3.67;;;2.10;;
62633;SDS011;48704;50.534;6.442;2023-07-31T14:51:08;4.72;;;2.28;;
62633;SDS011;48704;50.534;6.442;2023-07-31T14:53:33;4.25;;;2.50;;
62633;SDS011;48704;50.534;6.442;2023-07-31T14:55:58;7.85;;;2.95;;
62633;SDS011;48704;50.534;6.442;2023-07-31T14:58:24;8.07;;;3.13;;
62633;SDS011;48704;50.534;6.442;2023-07-31T15:00:49;5.03;;;2.92;;
62633;SDS011;48704;50.534;6.442;2023-07-31T15:03:15;8.65;;;3.22;;
62633;SDS011;48704;50.534;6.442;2023-07-31T15:05:40;5.60;;;3.15;;
62633;SDS011;48704;50.534;6.442;2023-07-31T15:08:05;5.95;;;3.10;;